createdAt,value
2022-12-29T00:01:11.339Z,11.93
2022-12-29T00:03:37.818Z,11.92
2022-12-29T00:06:04.280Z,11.92
2022-12-29T00:08:42.444Z,11.92
2022-12-29T00:11:16.398Z,11.90
2022-12-29T00:14:01.385Z,11.91
2022-12-29T00:16:27.980Z,11.92
2022-12-29T00:18:54.485Z,11.93
2022-12-29T00:21:40.852Z,11.93
2022-12-29T00:24:26.071Z,11.97
2022-12-29T00:27:23.073Z,11.99
2022-12-29T00:30:08.424Z,12.03
2022-12-29T00:32:53.375Z,12.04
2022-12-29T00:35:26.405Z,12.08
2022-12-29T00:38:11.980Z,12.08
2022-12-29T00:40:56.870Z,11.93
2022-12-29T00:43:41.731Z,12.09
2022-12-29T00:46:08.177Z,12.12
2022-12-29T00:48:53.189Z,12.15
2022-12-29T00:51:19.662Z,12.22
2022-12-29T00:53:45.969Z,12.25
2022-12-29T00:56:12.305Z,12.26
2022-12-29T00:58:38.629Z,12.26
2022-12-29T01:01:09.284Z,12.28
2022-12-29T01:03:36.886Z,12.30
2022-12-29T01:06:04.209Z,12.28
2022-12-29T01:08:30.673Z,12.29
2022-12-29T01:11:15.142Z,12.27
2022-12-29T01:13:43.336Z,12.29
2022-12-29T01:16:09.678Z,12.28
2022-12-29T01:18:35.996Z,12.25
2022-12-29T01:21:03.632Z,12.25
2022-12-29T01:23:29.960Z,12.26
2022-12-29T01:25:56.891Z,12.26
2022-12-29T01:28:26.067Z,12.31
2022-12-29T01:30:52.514Z,12.37
2022-12-29T01:33:18.813Z,12.42
2022-12-29T01:35:45.141Z,12.43
2022-12-29T01:38:11.378Z,12.41
2022-12-29T01:40:44.004Z,12.43
2022-12-29T01:43:11.626Z,12.44
2022-12-29T01:45:37.974Z,12.48
2022-12-29T01:48:05.959Z,12.52
2022-12-29T01:50:51.657Z,12.54
2022-12-29T01:53:21.758Z,12.58
2022-12-29T01:55:52.774Z,12.58
2022-12-29T01:58:21.068Z,12.58
2022-12-29T02:00:47.416Z,12.58
2022-12-29T02:03:14.145Z,12.58
2022-12-29T02:05:45.997Z,12.55
2022-12-29T02:08:12.373Z,12.52
2022-12-29T02:10:40.014Z,12.28
2022-12-29T02:13:06.313Z,12.43
2022-12-29T02:15:36.638Z,12.40
2022-12-29T02:18:02.974Z,12.37
2022-12-29T02:20:42.914Z,12.37
2022-12-29T02:23:27.943Z,12.38
2022-12-29T02:26:13.343Z,12.38
2022-12-29T02:28:55.914Z,12.38
2022-12-29T02:31:25.241Z,12.41
2022-12-29T02:33:51.505Z,12.43
2022-12-29T02:36:29.969Z,12.45
2022-12-29T02:39:02.343Z,12.46
2022-12-29T02:41:48.893Z,12.47
2022-12-29T02:44:26.129Z,12.47
2022-12-29T02:47:01.253Z,12.48
2022-12-29T02:49:33.925Z,12.47
2022-12-29T02:52:24.845Z,12.47
2022-12-29T02:54:54.045Z,12.48
2022-12-29T02:57:23.154Z,12.49
2022-12-29T02:59:54.506Z,12.49
2022-12-29T03:02:35.136Z,12.47
2022-12-29T03:05:09.558Z,12.47
2022-12-29T03:07:54.408Z,12.46
2022-12-29T03:10:26.596Z,12.46
2022-12-29T03:13:34.685Z,12.48
2022-12-29T03:16:13.502Z,12.47
2022-12-29T03:18:44.678Z,12.48
2022-12-29T03:21:16.796Z,12.47
2022-12-29T03:23:48.409Z,12.49
2022-12-29T03:26:16.982Z,12.50
2022-12-29T03:28:51.248Z,12.48
2022-12-29T03:31:18.609Z,12.47
2022-12-29T03:33:45.929Z,12.50
2022-12-29T03:36:14.877Z,12.48
2022-12-29T03:38:44.986Z,12.47
2022-12-29T03:41:14.485Z,12.47
2022-12-29T03:43:40.936Z,12.46
2022-12-29T03:46:07.345Z,12.46
2022-12-29T03:48:33.852Z,12.44
2022-12-29T03:51:00.954Z,12.45
2022-12-29T03:53:27.314Z,12.41
2022-12-29T03:55:53.561Z,12.35
2022-12-29T03:58:19.817Z,12.28
2022-12-29T04:00:46.104Z,12.25
2022-12-29T04:03:12.495Z,12.25
2022-12-29T04:05:38.842Z,12.22
2022-12-29T04:08:05.283Z,12.21
2022-12-29T04:10:31.608Z,12.23
2022-12-29T04:12:57.849Z,12.21
2022-12-29T04:15:25.207Z,12.22
2022-12-29T04:17:51.651Z,12.21
2022-12-29T04:20:36.463Z,12.16
2022-12-29T04:23:03.450Z,12.14
2022-12-29T04:25:30.997Z,12.16
2022-12-29T04:27:57.251Z,12.13
2022-12-29T04:30:23.824Z,12.08
2022-12-29T04:32:50.519Z,12.05
2022-12-29T04:35:16.864Z,12.07
2022-12-29T04:37:44.928Z,12.07
2022-12-29T04:40:11.637Z,12.11
2022-12-29T04:42:38.019Z,12.13
2022-12-29T04:45:04.508Z,12.17
2022-12-29T04:47:30.831Z,12.27
2022-12-29T04:49:57.383Z,12.34
2022-12-29T04:52:23.780Z,12.38
2022-12-29T04:54:50.142Z,12.38
2022-12-29T04:57:16.470Z,12.38
2022-12-29T04:59:42.852Z,12.38
2022-12-29T05:02:09.294Z,12.35
2022-12-29T05:04:36.001Z,12.36
2022-12-29T05:07:02.372Z,12.34
2022-12-29T05:09:28.782Z,12.33
2022-12-29T05:11:55.058Z,12.31
2022-12-29T05:14:21.318Z,12.30
2022-12-29T05:16:47.642Z,12.28
2022-12-29T05:19:13.951Z,12.28
2022-12-29T05:21:40.826Z,12.28
2022-12-29T05:24:07.208Z,12.26
2022-12-29T05:26:33.996Z,12.26
2022-12-29T05:29:00.899Z,12.25
2022-12-29T05:31:27.369Z,12.24
2022-12-29T05:33:53.765Z,12.22
2022-12-29T05:36:20.057Z,12.19
2022-12-29T05:38:46.411Z,12.19
2022-12-29T05:41:12.696Z,12.16
2022-12-29T05:43:38.997Z,12.19
2022-12-29T05:46:05.453Z,12.26
2022-12-29T05:48:37.626Z,12.27
2022-12-29T05:51:04.959Z,12.31
2022-12-29T05:53:31.226Z,12.37
2022-12-29T05:55:57.694Z,12.42
2022-12-29T05:58:24.031Z,12.46
2022-12-29T06:00:50.304Z,12.47
2022-12-29T06:03:16.790Z,12.46
2022-12-29T06:05:45.159Z,12.48
2022-12-29T06:08:11.462Z,12.47
2022-12-29T06:10:37.823Z,12.49
2022-12-29T06:13:06.372Z,12.47
2022-12-29T06:15:33.406Z,12.46
2022-12-29T06:18:00.517Z,12.48
2022-12-29T06:20:26.768Z,12.49
2022-12-29T06:22:53.089Z,12.51
2022-12-29T06:25:19.401Z,12.52
2022-12-29T06:27:45.694Z,12.51
2022-12-29T06:30:12.415Z,12.50
2022-12-29T06:32:39.526Z,12.48
2022-12-29T06:35:07.063Z,12.26
2022-12-29T06:37:33.415Z,12.46
2022-12-29T06:39:59.877Z,12.42
2022-12-29T06:42:26.264Z,12.42
2022-12-29T06:44:53.253Z,12.38
2022-12-29T06:47:19.679Z,12.38
2022-12-29T06:49:46.053Z,12.38
2022-12-29T06:52:13.238Z,12.41
2022-12-29T06:54:39.766Z,12.42
2022-12-29T06:57:06.081Z,12.43
2022-12-29T06:59:32.434Z,12.47
2022-12-29T07:01:58.913Z,12.47
2022-12-29T07:04:25.455Z,12.49
2022-12-29T07:06:51.782Z,12.48
2022-12-29T07:09:18.044Z,12.47
2022-12-29T07:11:44.302Z,12.46
2022-12-29T07:14:11.520Z,12.46
2022-12-29T07:16:37.996Z,12.41
2022-12-29T07:19:04.411Z,12.41
2022-12-29T07:21:30.939Z,12.38
2022-12-29T07:23:57.229Z,12.33
2022-12-29T07:26:23.492Z,12.32
2022-12-29T07:28:49.842Z,12.30
2022-12-29T07:31:17.480Z,12.32
2022-12-29T07:33:44.384Z,12.30
2022-12-29T07:36:11.009Z,12.29
2022-12-29T07:38:37.346Z,12.27
2022-12-29T07:41:03.616Z,12.26
2022-12-29T07:43:30.100Z,12.21
2022-12-29T07:45:56.417Z,12.20
2022-12-29T07:48:22.774Z,12.16
2022-12-29T07:50:49.151Z,12.18
2022-12-29T07:53:15.657Z,12.20
2022-12-29T07:55:42.035Z,12.21
2022-12-29T07:58:08.410Z,12.21
2022-12-29T08:00:34.728Z,12.21
2022-12-29T08:03:01.087Z,12.23
2022-12-29T08:05:27.411Z,12.26
2022-12-29T08:07:53.721Z,12.26
2022-12-29T08:10:20.006Z,12.26
2022-12-29T08:12:46.326Z,12.26
2022-12-29T08:15:13.062Z,12.22
2022-12-29T08:17:39.382Z,12.19
2022-12-29T08:20:06.200Z,12.23
2022-12-29T08:22:32.438Z,12.26
2022-12-29T08:24:58.699Z,12.27
2022-12-29T08:27:25.003Z,12.31
2022-12-29T08:29:51.277Z,12.33
2022-12-29T08:32:17.600Z,12.35
2022-12-29T08:35:02.702Z,12.29
2022-12-29T08:37:49.455Z,12.25
2022-12-29T08:40:36.066Z,12.20
2022-12-29T08:43:23.208Z,12.13
2022-12-29T08:46:10.003Z,12.08
2022-12-29T08:48:56.735Z,12.09
2022-12-29T08:51:43.542Z,12.07
2022-12-29T08:54:30.223Z,12.02
2022-12-29T08:57:16.873Z,12.04
2022-12-29T09:00:04.917Z,12.05
2022-12-29T09:02:51.784Z,12.07
2022-12-29T09:05:38.513Z,12.12
2022-12-29T09:08:25.705Z,12.15
2022-12-29T09:11:14.802Z,12.15
2022-12-29T09:14:01.411Z,12.18
2022-12-29T09:17:06.815Z,12.21
2022-12-29T09:19:53.483Z,12.19
2022-12-29T09:22:40.537Z,12.18
2022-12-29T09:25:27.209Z,12.21
2022-12-29T09:28:13.892Z,12.23
2022-12-29T09:31:00.916Z,12.25
2022-12-29T09:33:47.614Z,12.27
2022-12-29T09:36:34.272Z,12.28
2022-12-29T09:39:20.953Z,12.32
2022-12-29T09:42:26.613Z,12.33
2022-12-29T09:45:23.083Z,12.33
2022-12-29T09:48:15.407Z,12.40
2022-12-29T09:51:04.254Z,12.41
2022-12-29T09:54:01.868Z,12.45
2022-12-29T09:56:48.773Z,12.42
2022-12-29T09:59:43.173Z,12.43
2022-12-29T10:02:33.276Z,12.43
2022-12-29T10:05:19.999Z,12.44
2022-12-29T10:08:17.754Z,12.45
2022-12-29T10:11:14.554Z,12.41
2022-12-29T10:14:19.965Z,12.40
2022-12-29T10:17:29.543Z,12.43
2022-12-29T10:20:25.205Z,12.45
2022-12-29T10:23:21.555Z,12.49
2022-12-29T10:26:12.244Z,12.55
2022-12-29T10:28:42.003Z,12.58
2022-12-29T10:31:14.555Z,12.59
2022-12-29T10:33:42.513Z,12.58
2022-12-29T10:36:32.097Z,12.57
2022-12-29T10:39:29.489Z,12.63
2022-12-29T10:42:12.086Z,12.68
2022-12-29T10:44:42.340Z,12.75
2022-12-29T10:47:13.673Z,12.74
2022-12-29T10:49:42.235Z,12.71
2022-12-29T10:52:09.304Z,12.71
2022-12-29T10:54:54.339Z,12.73
2022-12-29T10:57:26.948Z,12.82
2022-12-29T10:59:53.368Z,12.87
2022-12-29T11:02:35.785Z,12.86
2022-12-29T11:05:04.676Z,12.88
2022-12-29T11:07:31.451Z,12.87
2022-12-29T11:10:16.881Z,12.89
2022-12-29T11:12:55.015Z,12.93
2022-12-29T11:15:21.403Z,12.98
2022-12-29T11:17:49.020Z,12.97
2022-12-29T11:20:20.825Z,12.97
2022-12-29T11:22:47.195Z,13.00
2022-12-29T11:25:13.961Z,13.00
2022-12-29T11:27:55.441Z,13.00
2022-12-29T11:30:26.291Z,13.01
2022-12-29T11:32:53.780Z,13.05
2022-12-29T11:35:30.497Z,13.03
2022-12-29T11:37:58.903Z,12.99
2022-12-29T11:40:43.879Z,12.98
2022-12-29T11:43:36.432Z,12.97
2022-12-29T11:46:25.007Z,12.99
2022-12-29T11:49:13.581Z,13.00
2022-12-29T11:51:44.498Z,13.03
2022-12-29T11:54:15.831Z,13.06
2022-12-29T11:56:43.514Z,13.09
2022-12-29T11:59:25.134Z,13.06
2022-12-29T12:01:51.945Z,13.03
2022-12-29T12:04:20.017Z,13.02
2022-12-29T12:06:58.735Z,13.04
2022-12-29T12:09:41.339Z,13.08
2022-12-29T12:12:10.667Z,13.07
2022-12-29T12:14:39.349Z,13.05
2022-12-29T12:17:11.326Z,13.07
2022-12-29T12:19:42.574Z,13.09
2022-12-29T12:22:13.824Z,13.04
2022-12-29T12:24:40.247Z,13.10
2022-12-29T12:27:09.345Z,13.04
2022-12-29T12:29:42.067Z,13.07
2022-12-29T12:32:14.905Z,13.08
2022-12-29T12:34:45.809Z,13.13
2022-12-29T12:37:15.168Z,13.11
2022-12-29T12:39:50.662Z,13.10
2022-12-29T12:42:16.920Z,13.09
2022-12-29T12:45:05.972Z,13.15
2022-12-29T12:47:41.129Z,13.20
2022-12-29T12:50:17.619Z,13.20
2022-12-29T12:53:01.827Z,13.20
2022-12-29T12:55:46.921Z,13.16
2022-12-29T12:58:37.454Z,13.14
2022-12-29T13:01:27.420Z,13.15
2022-12-29T13:04:02.191Z,13.15
2022-12-29T13:06:44.164Z,13.15
2022-12-29T13:09:19.628Z,13.11
2022-12-29T13:11:51.943Z,13.08
2022-12-29T13:14:30.931Z,13.07
2022-12-29T13:16:57.213Z,13.04
2022-12-29T13:19:25.187Z,12.98
2022-12-29T13:22:03.782Z,12.93
2022-12-29T13:24:37.380Z,12.89
2022-12-29T13:27:15.866Z,12.84
2022-12-29T13:29:51.483Z,12.81
2022-12-29T13:32:33.552Z,12.80
2022-12-29T13:35:09.022Z,12.73
2022-12-29T13:37:42.341Z,12.75
2022-12-29T13:40:16.267Z,12.74
2022-12-29T13:42:43.264Z,12.74
2022-12-29T13:45:15.720Z,12.71
2022-12-29T13:48:02.296Z,12.67
2022-12-29T13:50:30.588Z,12.64
2022-12-29T13:53:09.543Z,12.66
2022-12-29T13:55:38.181Z,12.62
2022-12-29T13:58:10.195Z,12.61
2022-12-29T14:00:44.706Z,12.61
2022-12-29T14:03:14.427Z,12.59
2022-12-29T14:05:40.945Z,12.61
2022-12-29T14:08:15.691Z,12.57
2022-12-29T14:10:49.347Z,12.56
2022-12-29T14:13:17.485Z,12.49
2022-12-29T14:15:45.961Z,12.48
2022-12-29T14:18:17.965Z,12.44
2022-12-29T14:21:02.624Z,12.45
2022-12-29T14:23:35.357Z,12.34
2022-12-29T14:26:07.695Z,12.15
2022-12-29T14:28:35.749Z,12.04
2022-12-29T14:31:03.464Z,11.98
2022-12-29T14:33:34.335Z,11.92
2022-12-29T14:36:19.632Z,11.84
2022-12-29T14:38:46.776Z,11.81
2022-12-29T14:41:20.950Z,11.76
2022-12-29T14:43:59.294Z,11.76
2022-12-29T14:46:26.166Z,11.81
2022-12-29T14:48:57.805Z,11.77
2022-12-29T14:51:29.869Z,11.74
2022-12-29T14:54:33.735Z,11.72
2022-12-29T14:57:23.708Z,11.68
2022-12-29T15:00:16.105Z,11.64
2022-12-29T15:03:08.835Z,11.66
2022-12-29T15:05:46.042Z,11.62
2022-12-29T15:08:32.554Z,11.65
2022-12-29T15:11:43.993Z,11.70
2022-12-29T15:14:40.289Z,11.63
2022-12-29T15:17:27.024Z,11.55
2022-12-29T15:20:21.661Z,11.51
2022-12-29T15:22:53.614Z,11.46
2022-12-29T15:25:20.195Z,11.39
2022-12-29T15:27:53.633Z,11.34
2022-12-29T15:30:20.596Z,11.26
2022-12-29T15:32:47.697Z,11.22
2022-12-29T15:35:33.622Z,11.21
2022-12-29T15:38:00.552Z,11.16
2022-12-29T15:40:31.496Z,11.16
2022-12-29T15:43:09.956Z,11.12
2022-12-29T15:45:36.695Z,11.11
2022-12-29T15:48:23.784Z,11.04
2022-12-29T15:51:18.127Z,11.02
2022-12-29T15:53:47.447Z,11.00
2022-12-29T15:56:13.925Z,10.98
2022-12-29T15:58:51.785Z,10.97
2022-12-29T16:01:24.278Z,10.96
2022-12-29T16:03:54.404Z,10.90
2022-12-29T16:06:44.434Z,10.87
2022-12-29T16:09:18.056Z,10.83
2022-12-29T16:11:55.709Z,10.83
2022-12-29T16:14:31.633Z,10.86
2022-12-29T16:16:59.711Z,10.88
2022-12-29T16:19:32.811Z,10.86
2022-12-29T16:21:59.900Z,10.80
2022-12-29T16:24:27.587Z,10.83
2022-12-29T16:27:00.538Z,10.84
2022-12-29T16:29:45.686Z,10.78
2022-12-29T16:32:26.518Z,10.71
2022-12-29T16:35:03.425Z,10.67
2022-12-29T16:37:34.097Z,10.64
2022-12-29T16:40:18.738Z,10.60
2022-12-29T16:42:51.282Z,10.60
2022-12-29T16:45:22.388Z,10.62
2022-12-29T16:48:07.198Z,10.55
2022-12-29T16:50:34.885Z,10.54
2022-12-29T16:53:01.445Z,10.50
2022-12-29T16:55:27.854Z,10.48
2022-12-29T16:57:56.657Z,10.40
2022-12-29T17:00:24.479Z,10.41
2022-12-29T17:02:52.772Z,10.40
2022-12-29T17:05:19.822Z,10.34
2022-12-29T17:07:46.298Z,10.33
2022-12-29T17:10:14.668Z,10.32
2022-12-29T17:12:42.844Z,10.32
2022-12-29T17:15:16.125Z,10.34
2022-12-29T17:17:43.430Z,10.37
2022-12-29T17:20:17.328Z,10.40
2022-12-29T17:22:43.821Z,10.38
2022-12-29T17:25:14.776Z,10.41
2022-12-29T17:27:44.438Z,10.36
2022-12-29T17:30:21.409Z,10.37
2022-12-29T17:33:14.607Z,10.37
2022-12-29T17:35:41.232Z,10.37
2022-12-29T17:38:19.470Z,10.32
2022-12-29T17:40:46.284Z,10.29
2022-12-29T17:43:13.897Z,10.28
2022-12-29T17:45:59.288Z,10.29
2022-12-29T17:48:25.725Z,10.23
2022-12-29T17:50:53.578Z,10.21
2022-12-29T17:53:21.811Z,10.21
2022-12-29T17:55:48.103Z,10.13
2022-12-29T17:58:18.831Z,10.13
2022-12-29T18:00:46.142Z,10.08
2022-12-29T18:03:16.711Z,10.02
2022-12-29T18:05:43.217Z,9.98
2022-12-29T18:08:10.233Z,10.09
2022-12-29T18:10:36.601Z,10.03
2022-12-29T18:13:03.153Z,10.07
2022-12-29T18:15:31.173Z,10.06
2022-12-29T18:18:02.204Z,10.09
2022-12-29T18:20:29.481Z,10.12
2022-12-29T18:22:55.815Z,10.14
2022-12-29T18:25:27.119Z,10.14
2022-12-29T18:27:53.776Z,10.17
2022-12-29T18:30:20.487Z,10.18
2022-12-29T18:33:05.448Z,10.24
2022-12-29T18:35:42.772Z,10.28
2022-12-29T18:38:09.118Z,10.25
2022-12-29T18:40:35.981Z,10.27
2022-12-29T18:43:02.820Z,10.28
2022-12-29T18:45:30.489Z,10.25
2022-12-29T18:47:56.864Z,10.18
2022-12-29T18:50:23.175Z,10.17
2022-12-29T18:52:49.601Z,10.14
2022-12-29T18:55:20.568Z,10.15
2022-12-29T18:57:47.090Z,10.26
2022-12-29T19:00:14.591Z,10.31
2022-12-29T19:02:41.436Z,10.32
2022-12-29T19:05:18.469Z,10.31
2022-12-29T19:07:46.739Z,10.22
2022-12-29T19:10:13.123Z,10.23
2022-12-29T19:13:16.409Z,9.93
2022-12-29T19:15:51.674Z,10.12
2022-12-29T19:21:06.428Z,10.14
2022-12-29T19:23:33.291Z,10.13
2022-12-29T19:25:59.689Z,10.10
2022-12-29T19:28:27.505Z,10.06
2022-12-29T19:30:58.948Z,10.00
2022-12-29T19:33:25.984Z,9.99
2022-12-29T19:35:52.813Z,9.94
2022-12-29T19:38:19.619Z,9.93
2022-12-29T19:40:50.809Z,9.88
2022-12-29T19:43:17.572Z,9.81
2022-12-29T19:45:44.974Z,9.79
2022-12-29T19:48:13.322Z,9.80
2022-12-29T19:50:45.812Z,9.72
2022-12-29T19:53:12.469Z,9.69
2022-12-29T19:55:46.483Z,9.66
2022-12-29T19:58:13.129Z,9.63
2022-12-29T20:00:40.730Z,9.62
2022-12-29T20:03:07.337Z,9.59
2022-12-29T20:05:33.841Z,9.62
2022-12-29T20:08:00.209Z,9.60
2022-12-29T20:10:26.554Z,9.61
2022-12-29T20:12:52.860Z,9.61
2022-12-29T20:15:19.809Z,9.57
2022-12-29T20:18:12.481Z,9.65
2022-12-29T20:20:33.661Z,9.55
2022-12-29T20:22:59.996Z,9.50
2022-12-29T20:25:45.595Z,9.50
2022-12-29T20:28:12.395Z,9.49
2022-12-29T20:30:38.746Z,9.50
2022-12-29T20:33:08.325Z,9.54
2022-12-29T20:35:35.435Z,9.46
2022-12-29T20:38:01.803Z,9.41
2022-12-29T20:40:28.162Z,9.35
2022-12-29T20:42:54.530Z,9.31
2022-12-29T20:45:20.909Z,9.32
2022-12-29T20:47:47.275Z,9.29
2022-12-29T20:50:13.614Z,9.27
2022-12-29T20:52:39.950Z,9.27
2022-12-29T20:55:06.475Z,9.22
2022-12-29T20:57:49.932Z,9.24
2022-12-29T21:00:22.618Z,9.23
2022-12-29T21:02:49.833Z,9.20
2022-12-29T21:05:25.037Z,9.21
2022-12-29T21:07:52.468Z,9.28
2022-12-29T21:10:18.947Z,9.33
2022-12-29T21:12:45.361Z,9.30
2022-12-29T21:15:14.238Z,9.27
2022-12-29T21:17:40.876Z,9.33
2022-12-29T21:20:07.350Z,9.29
2022-12-29T21:22:33.628Z,9.26
2022-12-29T21:24:59.914Z,9.20
2022-12-29T21:27:26.369Z,9.10
2022-12-29T21:29:52.671Z,9.10
2022-12-29T21:32:19.060Z,9.08
2022-12-29T21:34:46.446Z,8.90
2022-12-29T21:37:13.755Z,8.94
2022-12-29T21:39:42.484Z,8.93
2022-12-29T21:42:09.505Z,8.99
2022-12-29T21:44:54.670Z,8.99
2022-12-29T21:47:21.071Z,8.96
2022-12-29T21:49:47.372Z,8.96
2022-12-29T21:52:13.830Z,8.83
2022-12-29T21:54:58.865Z,8.77
2022-12-29T21:57:44.119Z,8.78
2022-12-29T22:00:29.407Z,8.83
2022-12-29T22:03:21.907Z,8.78
2022-12-29T22:06:07.961Z,8.75
2022-12-29T22:08:53.049Z,8.76
2022-12-29T22:11:37.893Z,8.78
2022-12-29T22:14:04.578Z,8.83
2022-12-29T22:16:31.136Z,8.82
2022-12-29T22:18:57.459Z,8.75
2022-12-29T22:21:23.887Z,8.70
2022-12-29T22:23:50.209Z,8.41
2022-12-29T22:26:16.707Z,8.63
2022-12-29T22:28:43.936Z,8.60
2022-12-29T22:31:27.207Z,8.60
2022-12-29T22:33:54.834Z,8.57
2022-12-29T22:36:21.254Z,8.53
2022-12-29T22:38:47.603Z,8.50
2022-12-29T22:41:13.901Z,8.48
2022-12-29T22:43:40.286Z,8.46
2022-12-29T22:46:09.547Z,8.45
2022-12-29T22:48:36.177Z,8.46
2022-12-29T22:51:02.909Z,8.39
2022-12-29T22:53:29.282Z,8.33
2022-12-29T22:56:06.161Z,8.33
2022-12-29T22:58:32.689Z,8.31
2022-12-29T23:00:59.404Z,8.27
2022-12-29T23:03:26.025Z,8.25
2022-12-29T23:06:11.492Z,8.23
2022-12-29T23:08:38.582Z,8.20
2022-12-29T23:11:06.244Z,8.19
2022-12-29T23:13:32.712Z,8.16
2022-12-29T23:15:59.426Z,8.15
2022-12-29T23:18:25.987Z,8.16
2022-12-29T23:20:52.326Z,8.12
2022-12-29T23:23:40.567Z,8.10
2022-12-29T23:26:11.077Z,8.10
2022-12-29T23:28:37.451Z,8.12
2022-12-29T23:31:03.917Z,8.09
2022-12-29T23:33:30.657Z,8.07
2022-12-29T23:35:57.096Z,8.05
2022-12-29T23:38:23.550Z,8.02
2022-12-29T23:40:49.853Z,8.09
2022-12-29T23:43:16.225Z,8.08
2022-12-29T23:45:47.399Z,8.07
2022-12-29T23:48:16.915Z,8.04
2022-12-29T23:50:43.297Z,8.02
2022-12-29T23:53:10.153Z,8.04
2022-12-29T23:55:37.619Z,8.01
2022-12-29T23:58:03.906Z,7.83
